sensor_id;sensor_type;location;lat;lon;timestamp;pressure;altitude;pressure_sealevel;temperature
64296;BMP280;51082;38.236;15.432;2022-12-07T00:00:33;101005.72;;;17.68
64296;BMP280;51082;38.236;15.432;2022-12-07T00:01:34;101018.09;;;17.67
64296;BMP280;51082;38.236;15.432;2022-12-07T00:02:38;101012.03;;;17.67
64296;BMP280;51082;38.236;15.432;2022-12-07T00:03:40;101009.84;;;17.64
64296;BMP280;51082;38.236;15.432;2022-12-07T00:04:43;101002.66;;;17.59
64296;BMP280;51082;38.236;15.432;2022-12-07T00:05:46;101012.13;;;17.60
64296;BMP280;51082;38.236;15.432;2022-12-07T00:06:50;101006.06;;;17.60
64296;BMP280;51082;38.236;15.432;2022-12-07T00:07:53;101007.13;;;17.59
64296;BMP280;51082;38.236;15.432;2022-12-07T00:08:54;101013.41;;;17.58
64296;BMP280;51082;38.236;15.432;2022-12-07T00:09:57;101008.16;;;17.58
64296;BMP280;51082;38.236;15.432;2022-12-07T00:11:02;101011.78;;;17.57
64296;BMP280;51082;38.236;15.432;2022-12-07T00:12:04;101009.38;;;17.55
64296;BMP280;51082;38.236;15.432;2022-12-07T00:13:07;101005.41;;;17.53
64296;BMP280;51082;38.236;15.432;2022-12-07T00:14:13;100996.91;;;17.51
64296;BMP280;51082;38.236;15.432;2022-12-07T00:15:14;101000.34;;;17.51
64296;BMP280;51082;38.236;15.432;2022-12-07T00:16:17;101005.41;;;17.53
64296;BMP280;51082;38.236;15.432;2022-12-07T00:17:21;100998.50;;;17.52
64296;BMP280;51082;38.236;15.432;2022-12-07T00:18:23;100999.81;;;17.49
64296;BMP280;51082;38.236;15.432;2022-12-07T00:19:27;101004.25;;;17.48
64296;BMP280;51082;38.236;15.432;2022-12-07T00:20:29;101003.88;;;17.45
64296;BMP280;51082;38.236;15.432;2022-12-07T00:21:32;101002.31;;;17.44
64296;BMP280;51082;38.236;15.432;2022-12-07T00:22:35;101001.50;;;17.43
64296;BMP280;51082;38.236;15.432;2022-12-07T00:23:36;101004.34;;;17.42
64296;BMP280;51082;38.236;15.432;2022-12-07T00:24:38;101010.41;;;17.42
64296;BMP280;51082;38.236;15.432;2022-12-07T00:25:39;100999.31;;;17.40
64296;BMP280;51082;38.236;15.432;2022-12-07T00:26:46;100999.53;;;17.39
64296;BMP280;51082;38.236;15.432;2022-12-07T00:27:47;101006.63;;;17.38
64296;BMP280;51082;38.236;15.432;2022-12-07T00:28:50;100997.94;;;17.38
64296;BMP280;51082;38.236;15.432;2022-12-07T00:29:51;100996.34;;;17.37
64296;BMP280;51082;38.236;15.432;2022-12-07T00:30:59;101002.41;;;17.37
64296;BMP280;51082;38.236;15.432;2022-12-07T00:32:00;101000.00;;;17.36
64296;BMP280;51082;38.236;15.432;2022-12-07T00:33:02;100997.84;;;17.33
64296;BMP280;51082;38.236;15.432;2022-12-07T00:34:06;100999.66;;;17.32
64296;BMP280;51082;38.236;15.432;2022-12-07T00:35:11;100999.66;;;17.32
64296;BMP280;51082;38.236;15.432;2022-12-07T00:36:13;100999.66;;;17.32
64296;BMP280;51082;38.236;15.432;2022-12-07T00:37:16;101000.69;;;17.31
64296;BMP280;51082;38.236;15.432;2022-12-07T00:38:17;101003.91;;;17.33
64296;BMP280;51082;38.236;15.432;2022-12-07T00:39:19;101002.63;;;17.36
64296;BMP280;51082;38.236;15.432;2022-12-07T00:40:22;100999.78;;;17.37
64296;BMP280;51082;38.236;15.432;2022-12-07T00:41:24;100994.75;;;17.36
64296;BMP280;51082;38.236;15.432;2022-12-07T00:42:28;100996.34;;;17.37
64296;BMP280;51082;38.236;15.432;2022-12-07T00:43:29;101009.72;;;17.35
64296;BMP280;51082;38.236;15.432;2022-12-07T00:44:31;101000.00;;;17.36
64296;BMP280;51082;38.236;15.432;2022-12-07T00:45:34;100996.56;;;17.35
64296;BMP280;51082;38.236;15.432;2022-12-07T00:46:35;100999.19;;;17.35
64296;BMP280;51082;38.236;15.432;2022-12-07T00:47:37;101004.56;;;17.40
64296;BMP280;51082;38.236;15.432;2022-12-07T00:48:38;101006.19;;;17.41
64296;BMP280;51082;38.236;15.432;2022-12-07T00:49:41;101008.38;;;17.44
64296;BMP280;51082;38.236;15.432;2022-12-07T00:50:42;101000.22;;;17.46
64296;BMP280;51082;38.236;15.432;2022-12-07T00:51:47;101008.38;;;17.44
64296;BMP280;51082;38.236;15.432;2022-12-07T00:52:49;101002.53;;;17.42
64296;BMP280;51082;38.236;15.432;2022-12-07T00:53:51;101007.78;;;17.42
64296;BMP280;51082;38.236;15.432;2022-12-07T00:54:56;101004.34;;;17.42
64296;BMP280;51082;38.236;15.432;2022-12-07T00:55:57;101006.19;;;17.41
64296;BMP280;51082;38.236;15.432;2022-12-07T00:56:59;101002.53;;;17.42
64296;BMP280;51082;38.236;15.432;2022-12-07T00:58:03;100996.47;;;17.42
64296;BMP280;51082;38.236;15.432;2022-12-07T00:59:05;100998.28;;;17.41
64296;BMP280;51082;38.236;15.432;2022-12-07T01:00:08;101003.56;;;17.41
64296;BMP280;51082;38.236;15.432;2022-12-07T01:01:09;100996.69;;;17.40
64296;BMP280;51082;38.236;15.432;2022-12-07T01:02:12;101002.53;;;17.42
64296;BMP280;51082;38.236;15.432;2022-12-07T01:03:13;100997.47;;;17.41
64296;BMP280;51082;38.236;15.432;2022-12-07T01:04:16;101007.78;;;17.42
64296;BMP280;51082;38.236;15.432;2022-12-07T01:05:18;101012.00;;;17.43
64296;BMP280;51082;38.236;15.432;2022-12-07T01:06:23;101004.94;;;17.44
64296;BMP280;51082;38.236;15.432;2022-12-07T01:07:25;101010.75;;;17.46
64296;BMP280;51082;38.236;15.432;2022-12-07T01:08:27;101003.47;;;17.48
64296;BMP280;51082;38.236;15.432;2022-12-07T01:09:29;101004.00;;;17.50
64296;BMP280;51082;38.236;15.432;2022-12-07T01:10:30;101004.81;;;17.51
64296;BMP280;51082;38.236;15.432;2022-12-07T01:11:33;101008.22;;;17.51
64296;BMP280;51082;38.236;15.432;2022-12-07T01:12:35;101003.78;;;17.52
64296;BMP280;51082;38.236;15.432;2022-12-07T01:13:39;101006.41;;;17.52
64296;BMP280;51082;38.236;15.432;2022-12-07T01:14:41;100999.53;;;17.51
64296;BMP280;51082;38.236;15.432;2022-12-07T01:15:43;100999.00;;;17.48
64296;BMP280;51082;38.236;15.432;2022-12-07T01:16:45;101000.00;;;17.47
64296;BMP280;51082;38.236;15.432;2022-12-07T01:17:48;101005.75;;;17.44
64296;BMP280;51082;38.236;15.432;2022-12-07T01:18:50;100998.28;;;17.41
64296;BMP280;51082;38.236;15.432;2022-12-07T01:19:53;101004.56;;;17.40
64296;BMP280;51082;38.236;15.432;2022-12-07T01:21:00;101001.59;;;17.37
64296;BMP280;51082;38.236;15.432;2022-12-07T01:22:03;101000.81;;;17.36
64296;BMP280;51082;38.236;15.432;2022-12-07T01:23:04;100999.19;;;17.35
64296;BMP280;51082;38.236;15.432;2022-12-07T01:24:08;100994.41;;;17.32
64296;BMP280;51082;38.236;15.432;2022-12-07T01:25:11;100996.69;;;17.29
64296;BMP280;51082;38.236;15.432;2022-12-07T01:26:13;100998.50;;;17.28
64296;BMP280;51082;38.236;15.432;2022-12-07T01:27:16;101000.56;;;17.26
64296;BMP280;51082;38.236;15.432;2022-12-07T01:28:17;100996.91;;;17.27
64296;BMP280;51082;38.236;15.432;2022-12-07T01:29:27;101001.03;;;17.23
64296;BMP280;51082;38.236;15.432;2022-12-07T01:30:30;101001.03;;;17.23
64296;BMP280;51082;38.236;15.432;2022-12-07T01:31:31;101006.63;;;17.27
64296;BMP280;51082;38.236;15.432;2022-12-07T01:32:33;101006.97;;;17.30
64296;BMP280;51082;38.236;15.432;2022-12-07T01:33:37;101006.19;;;17.30
64296;BMP280;51082;38.236;15.432;2022-12-07T01:34:40;101005.94;;;17.31
64296;BMP280;51082;38.236;15.432;2022-12-07T01:35:41;101000.47;;;17.33
64296;BMP280;51082;38.236;15.432;2022-12-07T01:36:44;101005.50;;;17.34
64296;BMP280;51082;38.236;15.432;2022-12-07T01:37:46;101000.00;;;17.36
64296;BMP280;51082;38.236;15.432;2022-12-07T01:38:51;101001.03;;;17.35
64296;BMP280;51082;38.236;15.432;2022-12-07T01:39:53;101003.09;;;17.33
64296;BMP280;51082;38.236;15.432;2022-12-07T01:40:58;100997.84;;;17.33
64296;BMP280;51082;38.236;15.432;2022-12-07T01:42:00;101004.13;;;17.32
64296;BMP280;51082;38.236;15.432;2022-12-07T01:43:04;101003.78;;;17.28
64296;BMP280;51082;38.236;15.432;2022-12-07T01:44:10;100996.91;;;17.27
64296;BMP280;51082;38.236;15.432;2022-12-07T01:45:36;100996.91;;;17.27
64296;BMP280;51082;38.236;15.432;2022-12-07T01:46:42;100996.91;;;17.27
64296;BMP280;51082;38.236;15.432;2022-12-07T01:47:45;100995.31;;;17.26
64296;BMP280;51082;38.236;15.432;2022-12-07T01:48:48;100995.88;;;17.28
64296;BMP280;51082;38.236;15.432;2022-12-07T01:49:51;100995.66;;;17.30
64296;BMP280;51082;38.236;15.432;2022-12-07T01:50:53;100993.59;;;17.32
64296;BMP280;51082;38.236;15.432;2022-12-07T01:52:05;100992.78;;;17.31
64296;BMP280;51082;38.236;15.432;2022-12-07T01:53:12;100990.72;;;17.33
64296;BMP280;51082;38.236;15.432;2022-12-07T01:54:14;100991.19;;;17.30
64296;BMP280;51082;38.236;15.432;2022-12-07T01:55:17;100986.38;;;17.27
64296;BMP280;51082;38.236;15.432;2022-12-07T01:56:20;100989.03;;;17.27
64296;BMP280;51082;38.236;15.432;2022-12-07T01:57:25;100984.22;;;17.24
64296;BMP280;51082;38.236;15.432;2022-12-07T01:58:26;100979.97;;;17.23
64296;BMP280;51082;38.236;15.432;2022-12-07T01:59:29;100981.59;;;17.24
64296;BMP280;51082;38.236;15.432;2022-12-07T02:00:30;100977.91;;;17.25
64296;BMP280;51082;38.236;15.432;2022-12-07T02:01:34;100975.88;;;17.27
64296;BMP280;51082;38.236;15.432;2022-12-07T02:02:37;100974.84;;;17.28
64296;BMP280;51082;38.236;15.432;2022-12-07T02:03:41;100973.81;;;17.29
64296;BMP280;51082;38.236;15.432;2022-12-07T02:04:43;100966.47;;;17.31
64296;BMP280;51082;38.236;15.432;2022-12-07T02:05:46;100968.09;;;17.32
64296;BMP280;51082;38.236;15.432;2022-12-07T02:06:51;100970.25;;;17.35
64296;BMP280;51082;38.236;15.432;2022-12-07T02:07:54;100969.78;;;17.38
64296;BMP280;51082;38.236;15.432;2022-12-07T02:08:56;100969.34;;;17.41
64296;BMP280;51082;38.236;15.432;2022-12-07T02:10:11;100966.72;;;17.41
64296;BMP280;51082;38.236;15.432;2022-12-07T02:11:13;100975.63;;;17.40
64296;BMP280;51082;38.236;15.432;2022-12-07T02:12:15;100975.28;;;17.37
64296;BMP280;51082;38.236;15.432;2022-12-07T02:13:18;100979.88;;;17.41
64296;BMP280;51082;38.236;15.432;2022-12-07T02:14:22;100973.56;;;17.42
64296;BMP280;51082;38.236;15.432;2022-12-07T02:15:24;100967.84;;;17.45
64296;BMP280;51082;38.236;15.432;2022-12-07T02:16:31;100969.44;;;17.46
64296;BMP280;51082;38.236;15.432;2022-12-07T02:17:40;100966.63;;;17.48
64296;BMP280;51082;38.236;15.432;2022-12-07T02:18:51;100969.78;;;17.50
64296;BMP280;51082;38.236;15.432;2022-12-07T02:20:02;100975.84;;;17.51
64296;BMP280;51082;38.236;15.432;2022-12-07T02:21:05;100974.63;;;17.53
64296;BMP280;51082;38.236;15.432;2022-12-07T02:22:12;100975.41;;;17.54
64296;BMP280;51082;38.236;15.432;2022-12-07T02:23:27;100979.09;;;17.53
64296;BMP280;51082;38.236;15.432;2022-12-07T02:24:40;100976.44;;;17.53
64296;BMP280;51082;38.236;15.432;2022-12-07T02:25:52;100971.53;;;17.44
64296;BMP280;51082;38.236;15.432;2022-12-07T02:27:02;100972.44;;;17.38
64296;BMP280;51082;38.236;15.432;2022-12-07T02:28:10;100972.44;;;17.38
64296;BMP280;51082;38.236;15.432;2022-12-07T02:29:21;100972.88;;;17.35
64296;BMP280;51082;38.236;15.432;2022-12-07T02:30:25;100974.38;;;17.31
64296;BMP280;51082;38.236;15.432;2022-12-07T02:31:29;100968.78;;;17.28
64296;BMP280;51082;38.236;15.432;2022-12-07T02:32:33;100965.56;;;17.26
64296;BMP280;51082;38.236;15.432;2022-12-07T02:33:40;100963.16;;;17.24
64296;BMP280;51082;38.236;15.432;2022-12-07T02:34:47;100967.88;;;17.22
64296;BMP280;51082;38.236;15.432;2022-12-07T02:35:55;100965.69;;;17.19
64296;BMP280;51082;38.236;15.432;2022-12-07T02:37:01;100967.75;;;17.17
64296;BMP280;51082;38.236;15.432;2022-12-07T02:38:11;100970.22;;;17.12
64296;BMP280;51082;38.236;15.432;2022-12-07T02:39:19;100964.84;;;17.07
64296;BMP280;51082;38.236;15.432;2022-12-07T02:40:22;100966.25;;;17.09
64296;BMP280;51082;38.236;15.432;2022-12-07T02:41:27;100958.59;;;17.08
64296;BMP280;51082;38.236;15.432;2022-12-07T02:42:37;100971.94;;;17.06
64296;BMP280;51082;38.236;15.432;2022-12-07T02:43:42;100966.91;;;17.05
64296;BMP280;51082;38.236;15.432;2022-12-07T02:44:48;100964.16;;;17.00
64296;BMP280;51082;38.236;15.432;2022-12-07T02:45:51;100958.91;;;17.00
64296;BMP280;51082;38.236;15.432;2022-12-07T02:46:53;100965.75;;;17.01
64296;BMP280;51082;38.236;15.432;2022-12-07T02:47:56;100962.72;;;17.04
64296;BMP280;51082;38.236;15.432;2022-12-07T02:49:00;100961.31;;;17.01
64296;BMP280;51082;38.236;15.432;2022-12-07T02:50:02;100962.59;;;16.99
64296;BMP280;51082;38.236;15.432;2022-12-07T02:51:05;100962.59;;;16.99
64296;BMP280;51082;38.236;15.432;2022-12-07T02:52:09;100962.59;;;16.99
64296;BMP280;51082;38.236;15.432;2022-12-07T02:54:28;100965.09;;;17.05
64296;BMP280;51082;38.236;15.432;2022-12-07T02:55:31;100964.06;;;17.06
64296;BMP280;51082;38.236;15.432;2022-12-07T02:56:37;100959.41;;;17.08
64296;BMP280;51082;38.236;15.432;2022-12-07T02:57:45;100962.81;;;17.09
64296;BMP280;51082;38.236;15.432;2022-12-07T02:58:56;100964.28;;;17.05
64296;BMP280;51082;38.236;15.432;2022-12-07T03:00:03;100953.66;;;17.00
64296;BMP280;51082;38.236;15.432;2022-12-07T03:01:09;100954.69;;;16.99
64296;BMP280;51082;38.236;15.432;2022-12-07T03:02:17;100965.41;;;16.97
64296;BMP280;51082;38.236;15.432;2022-12-07T03:03:25;100959.81;;;16.94
64296;BMP280;51082;38.236;15.432;2022-12-07T03:04:31;100956.84;;;16.90
64296;BMP280;51082;38.236;15.432;2022-12-07T03:05:42;100952.56;;;16.89
64296;BMP280;51082;38.236;15.432;2022-12-07T03:06:49;100961.25;;;16.90
64296;BMP280;51082;38.236;15.432;2022-12-07T03:08:00;100957.41;;;16.92
64296;BMP280;51082;38.236;15.432;2022-12-07T03:09:06;100958.22;;;16.93
64296;BMP280;51082;38.236;15.432;2022-12-07T03:10:14;100958.63;;;16.90
64296;BMP280;51082;38.236;15.432;2022-12-07T03:11:21;100952.25;;;16.85
64296;BMP280;51082;38.236;15.432;2022-12-07T03:12:27;100947.44;;;16.82
64296;BMP280;51082;38.236;15.432;2022-12-07T03:13:31;100952.72;;;16.82
64296;BMP280;51082;38.236;15.432;2022-12-07T03:14:35;100948.00;;;16.84
64296;BMP280;51082;38.236;15.432;2022-12-07T03:15:46;100944.38;;;16.85
64296;BMP280;51082;38.236;15.432;2022-12-07T03:16:52;100947.00;;;16.85
64296;BMP280;51082;38.236;15.432;2022-12-07T03:18:00;100948.25;;;16.83
64296;BMP280;51082;38.236;15.432;2022-12-07T03:19:06;100944.03;;;16.82
64296;BMP280;51082;38.236;15.432;2022-12-07T03:20:10;100942.19;;;16.82
64296;BMP280;51082;38.236;15.432;2022-12-07T03:21:13;100944.03;;;16.82
64296;BMP280;51082;38.236;15.432;2022-12-07T03:22:19;100945.38;;;16.84
64296;BMP280;51082;38.236;15.432;2022-12-07T03:23:21;100942.53;;;16.86
64296;BMP280;51082;38.236;15.432;2022-12-07T03:24:26;100953.38;;;16.90
64296;BMP280;51082;38.236;15.432;2022-12-07T03:25:28;100953.19;;;16.91
64296;BMP280;51082;38.236;15.432;2022-12-07T03:26:31;100946.88;;;16.92
64296;BMP280;51082;38.236;15.432;2022-12-07T03:27:34;100940.03;;;16.91
64296;BMP280;51082;38.236;15.432;2022-12-07T03:28:38;100946.09;;;16.92
64296;BMP280;51082;38.236;15.432;2022-12-07T03:29:42;100942.84;;;16.90
64296;BMP280;51082;38.236;15.432;2022-12-07T03:30:49;100938.53;;;16.83
64296;BMP280;51082;38.236;15.432;2022-12-07T03:31:54;100938.16;;;16.80
64296;BMP280;51082;38.236;15.432;2022-12-07T03:32:57;100929.72;;;16.78
64296;BMP280;51082;38.236;15.432;2022-12-07T03:34:05;100937.25;;;16.74
64296;BMP280;51082;38.236;15.432;2022-12-07T03:35:09;100935.06;;;16.71
64296;BMP280;51082;38.236;15.432;2022-12-07T03:36:14;100935.66;;;16.73
64296;BMP280;51082;38.236;15.432;2022-12-07T03:37:18;100924.56;;;16.71
64296;BMP280;51082;38.236;15.432;2022-12-07T03:38:25;100920.13;;;16.72
64296;BMP280;51082;38.236;15.432;2022-12-07T03:39:29;100924.09;;;16.74
64296;BMP280;51082;38.236;15.432;2022-12-07T03:40:35;100920.91;;;16.72
64296;BMP280;51082;38.236;15.432;2022-12-07T03:41:38;100915.06;;;16.70
64296;BMP280;51082;38.236;15.432;2022-12-07T03:42:50;100918.03;;;16.62
64296;BMP280;51082;38.236;15.432;2022-12-07T03:43:51;100926.81;;;16.56
64296;BMP280;51082;38.236;15.432;2022-12-07T03:44:55;100923.25;;;16.50
64296;BMP280;51082;38.236;15.432;2022-12-07T03:46:03;100921.31;;;16.46
64296;BMP280;51082;38.236;15.432;2022-12-07T03:47:16;100926.75;;;16.44
64296;BMP280;51082;38.236;15.432;2022-12-07T03:48:24;100928.03;;;16.42
64296;BMP280;51082;38.236;15.432;2022-12-07T03:49:28;100923.31;;;16.44
64296;BMP280;51082;38.236;15.432;2022-12-07T03:50:34;100926.97;;;16.43
64296;BMP280;51082;38.236;15.432;2022-12-07T03:51:40;100928.03;;;16.42
64296;BMP280;51082;38.236;15.432;2022-12-07T03:52:44;100922.16;;;16.40
64296;BMP280;51082;38.236;15.432;2022-12-07T03:53:48;100923.41;;;16.37
64296;BMP280;51082;38.236;15.432;2022-12-07T03:54:59;100920.56;;;16.39
64296;BMP280;51082;38.236;15.432;2022-12-07T03:56:04;100923.66;;;16.36
64296;BMP280;51082;38.236;15.432;2022-12-07T03:57:06;100921.84;;;16.36
64296;BMP280;51082;38.236;15.432;2022-12-07T03:58:10;100918.63;;;16.34
64296;BMP280;51082;38.236;15.432;2022-12-07T03:59:12;100922.66;;;16.37
64296;BMP280;51082;38.236;15.432;2022-12-07T04:00:15;100917.81;;;16.34
64296;BMP280;51082;38.236;15.432;2022-12-07T04:01:23;100914.84;;;16.30
64296;BMP280;51082;38.236;15.432;2022-12-07T04:02:28;100918.13;;;16.26
64296;BMP280;51082;38.236;15.432;2022-12-07T04:03:29;100915.50;;;16.26
64296;BMP280;51082;38.236;15.432;2022-12-07T04:04:32;100913.31;;;16.22
64296;BMP280;51082;38.236;15.432;2022-12-07T04:05:34;100913.53;;;16.21
64296;BMP280;51082;38.236;15.432;2022-12-07T04:06:36;100912.75;;;16.20
64296;BMP280;51082;38.236;15.432;2022-12-07T04:07:38;100916.41;;;16.19
64296;BMP280;51082;38.236;15.432;2022-12-07T04:08:40;100915.38;;;16.20
64296;BMP280;51082;38.236;15.432;2022-12-07T04:09:41;100920.63;;;16.20
64296;BMP280;51082;38.236;15.432;2022-12-07T04:10:43;100918.22;;;16.19
64296;BMP280;51082;38.236;15.432;2022-12-07T04:11:44;100918.41;;;16.17
64296;BMP280;51082;38.236;15.432;2022-12-07T04:12:47;100920.06;;;16.18
64296;BMP280;51082;38.236;15.432;2022-12-07T04:13:48;100923.25;;;16.20
64296;BMP280;51082;38.236;15.432;2022-12-07T04:15:17;100929.28;;;16.21
64296;BMP280;51082;38.236;15.432;2022-12-07T04:16:21;100929.75;;;16.18
64296;BMP280;51082;38.236;15.432;2022-12-07T04:17:31;100923.13;;;16.15
64296;BMP280;51082;38.236;15.432;2022-12-07T04:18:33;100922.50;;;16.13
64296;BMP280;51082;38.236;15.432;2022-12-07T04:19:34;100920.13;;;16.12
64296;BMP280;51082;38.236;15.432;2022-12-07T04:20:37;100922.97;;;16.10
64296;BMP280;51082;38.236;15.432;2022-12-07T04:21:38;100919.75;;;16.08
64296;BMP280;51082;38.236;15.432;2022-12-07T04:22:40;100924.66;;;16.05
64296;BMP280;51082;38.236;15.432;2022-12-07T04:23:41;100921.22;;;16.04
64296;BMP280;51082;38.236;15.432;2022-12-07T04:24:44;100919.41;;;16.05
64296;BMP280;51082;38.236;15.432;2022-12-07T04:25:47;100921.00;;;16.06
64296;BMP280;51082;38.236;15.432;2022-12-07T04:26:50;100914.59;;;16.02
64296;BMP280;51082;38.236;15.432;2022-12-07T04:27:51;100921.84;;;16.00
64296;BMP280;51082;38.236;15.432;2022-12-07T04:28:54;100916.88;;;15.98
64296;BMP280;51082;38.236;15.432;2022-12-07T04:29:55;100911.59;;;15.98
64296;BMP280;51082;38.236;15.432;2022-12-07T04:30:58;100911.34;;;16.00
64296;BMP280;51082;38.236;15.432;2022-12-07T04:32:00;100913.44;;;15.98
64296;BMP280;51082;38.236;15.432;2022-12-07T04:33:03;100913.44;;;15.98
64296;BMP280;51082;38.236;15.432;2022-12-07T04:34:06;100912.63;;;15.97
64296;BMP280;51082;38.236;15.432;2022-12-07T04:35:09;100922.69;;;16.00
64296;BMP280;51082;38.236;15.432;2022-12-07T04:36:10;100914.22;;;15.98
64296;BMP280;51082;38.236;15.432;2022-12-07T04:37:13;100916.28;;;15.96
64296;BMP280;51082;38.236;15.432;2022-12-07T04:38:14;100915.91;;;15.93
64296;BMP280;51082;38.236;15.432;2022-12-07T04:39:18;100917.28;;;15.95
64296;BMP280;51082;38.236;15.432;2022-12-07T04:40:19;100918.78;;;15.91
64296;BMP280;51082;38.236;15.432;2022-12-07T04:41:22;100912.53;;;15.85
64296;BMP280;51082;38.236;15.432;2022-12-07T04:42:27;100911.97;;;15.83
64296;BMP280;51082;38.236;15.432;2022-12-07T04:43:29;100914.81;;;15.82
64296;BMP280;51082;38.236;15.432;2022-12-07T04:44:31;100925.75;;;15.79
64296;BMP280;51082;38.236;15.432;2022-12-07T04:45:33;100908.41;;;15.78
64296;BMP280;51082;38.236;15.432;2022-12-07T04:46:37;100921.31;;;15.79
64296;BMP280;51082;38.236;15.432;2022-12-07T04:47:40;100915.25;;;15.79
64296;BMP280;51082;38.236;15.432;2022-12-07T04:48:42;100914.09;;;15.75
64296;BMP280;51082;38.236;15.432;2022-12-07T04:49:44;100902.78;;;15.74
64296;BMP280;51082;38.236;15.432;2022-12-07T04:50:47;100906.34;;;15.80
64296;BMP280;51082;38.236;15.432;2022-12-07T04:51:50;100913.03;;;15.82
64296;BMP280;51082;38.236;15.432;2022-12-07T04:52:54;100907.78;;;15.82
64296;BMP280;51082;38.236;15.432;2022-12-07T04:54:02;100911.19;;;15.83
64296;BMP280;51082;38.236;15.432;2022-12-07T04:55:04;100908.41;;;15.78
64296;BMP280;51082;38.236;15.432;2022-12-07T04:56:06;100910.00;;;15.79
64296;BMP280;51082;38.236;15.432;2022-12-07T04:57:07;100920.94;;;15.76
64296;BMP280;51082;38.236;15.432;2022-12-07T04:58:10;100921.16;;;15.74
64296;BMP280;51082;38.236;15.432;2022-12-07T04:59:11;100928.25;;;15.74
64296;BMP280;51082;38.236;15.432;2022-12-07T05:00:14;100921.34;;;15.73
64296;BMP280;51082;38.236;15.432;2022-12-07T05:01:16;100925.41;;;15.75
64296;BMP280;51082;38.236;15.432;2022-12-07T05:02:18;100922.78;;;15.75
64296;BMP280;51082;38.236;15.432;2022-12-07T05:03:21;100924.59;;;15.75
64296;BMP280;51082;38.236;15.432;2022-12-07T05:04:25;100925.63;;;15.74
64296;BMP280;51082;38.236;15.432;2022-12-07T05:05:33;100923.00;;;15.74
64296;BMP280;51082;38.236;15.432;2022-12-07T05:06:37;100923.97;;;15.73
64296;BMP280;51082;38.236;15.432;2022-12-07T05:07:40;100922.78;;;15.75
64296;BMP280;51082;38.236;15.432;2022-12-07T05:08:41;100926.19;;;15.76
64296;BMP280;51082;38.236;15.432;2022-12-07T05:09:45;100925.63;;;15.74
64296;BMP280;51082;38.236;15.432;2022-12-07T05:10:48;100923.97;;;15.73
64296;BMP280;51082;38.236;15.432;2022-12-07T05:11:49;100920.81;;;15.71
64296;BMP280;51082;38.236;15.432;2022-12-07T05:12:54;100929.69;;;15.70
64296;BMP280;51082;38.236;15.432;2022-12-07T05:13:55;100924.44;;;15.70
64296;BMP280;51082;38.236;15.432;2022-12-07T05:14:58;100916.56;;;15.70
64296;BMP280;51082;38.236;15.432;2022-12-07T05:16:02;100923.19;;;15.72
64296;BMP280;51082;38.236;15.432;2022-12-07T05:17:04;100929.69;;;15.70
64296;BMP280;51082;38.236;15.432;2022-12-07T05:18:05;100921.47;;;15.66
64296;BMP280;51082;38.236;15.432;2022-12-07T05:19:12;100926.31;;;15.63
64296;BMP280;51082;38.236;15.432;2022-12-07T05:20:13;100924.72;;;15.61
64296;BMP280;51082;38.236;15.432;2022-12-07T05:21:16;100928.94;;;15.63
64296;BMP280;51082;38.236;15.432;2022-12-07T05:22:17;100929.97;;;15.61
64296;BMP280;51082;38.236;15.432;2022-12-07T05:23:19;100933.63;;;15.60
64296;BMP280;51082;38.236;15.432;2022-12-07T05:24:20;100926.75;;;15.59
64296;BMP280;51082;38.236;15.432;2022-12-07T05:25:23;100929.00;;;15.56
64296;BMP280;51082;38.236;15.432;2022-12-07T05:26:26;100936.09;;;15.55
64296;BMP280;51082;38.236;15.432;2022-12-07T05:27:30;100934.25;;;15.56
64296;BMP280;51082;38.236;15.432;2022-12-07T05:28:32;100933.69;;;15.54
64296;BMP280;51082;38.236;15.432;2022-12-07T05:29:34;100933.91;;;15.52
64296;BMP280;51082;38.236;15.432;2022-12-07T05:30:36;100938.53;;;15.50
64296;BMP280;51082;38.236;15.432;2022-12-07T05:31:37;100935.72;;;15.52
64296;BMP280;51082;38.236;15.432;2022-12-07T05:32:42;100931.72;;;15.49
64296;BMP280;51082;38.236;15.432;2022-12-07T05:33:46;100928.50;;;15.47
64296;BMP280;51082;38.236;15.432;2022-12-07T05:34:53;100941.41;;;15.49
64296;BMP280;51082;38.236;15.432;2022-12-07T05:35:55;100934.13;;;15.51
64296;BMP280;51082;38.236;15.432;2022-12-07T05:37:00;100932.34;;;15.45
64296;BMP280;51082;38.236;15.432;2022-12-07T05:38:01;100935.44;;;15.42
64296;BMP280;51082;38.236;15.432;2022-12-07T05:39:03;100929.56;;;15.40
64296;BMP280;51082;38.236;15.432;2022-12-07T05:40:06;100930.00;;;15.37
64296;BMP280;51082;38.236;15.432;2022-12-07T05:41:14;100934.59;;;15.41
64296;BMP280;51082;38.236;15.432;2022-12-07T05:42:30;100924.28;;;15.46
64296;BMP280;51082;38.236;15.432;2022-12-07T05:43:32;100932.59;;;15.43
64296;BMP280;51082;38.236;15.432;2022-12-07T05:44:33;100927.34;;;15.43
64296;BMP280;51082;38.236;15.432;2022-12-07T05:45:35;100933.38;;;15.44
64296;BMP280;51082;38.236;15.432;2022-12-07T05:46:37;100935.75;;;15.45
64296;BMP280;51082;38.236;15.432;2022-12-07T05:47:42;100944.66;;;15.44
64296;BMP280;51082;38.236;15.432;2022-12-07T05:48:44;100942.63;;;15.46
64296;BMP280;51082;38.236;15.432;2022-12-07T05:49:45;100943.63;;;15.45
64296;BMP280;51082;38.236;15.432;2022-12-07T05:50:49;100947.06;;;15.46
64296;BMP280;51082;38.236;15.432;2022-12-07T05:51:50;100936.16;;;15.49
64296;BMP280;51082;38.236;15.432;2022-12-07T05:52:52;100938.13;;;15.53
64296;BMP280;51082;38.236;15.432;2022-12-07T05:53:54;100940.59;;;15.48
64296;BMP280;51082;38.236;15.432;2022-12-07T05:54:56;100942.22;;;15.49
64296;BMP280;51082;38.236;15.432;2022-12-07T05:55:57;100940.97;;;15.52
64296;BMP280;51082;38.236;15.432;2022-12-07T05:56:59;100940.16;;;15.51
64296;BMP280;51082;38.236;15.432;2022-12-07T05:58:01;100936.09;;;15.55
64296;BMP280;51082;38.236;15.432;2022-12-07T05:59:20;100946.00;;;15.53